createdAt,value
2018-10-02T00:01:25.321Z,65.46
2018-10-02T00:03:54.377Z,65.63
2018-10-02T00:06:23.532Z,65.71
2018-10-02T00:08:52.673Z,66.01
2018-10-02T00:11:26.748Z,65.88
2018-10-02T00:14:00.987Z,65.91
2018-10-02T00:16:30.703Z,65.87
2018-10-02T00:18:59.791Z,66.16
2018-10-02T00:21:29.192Z,66.28
2018-10-02T00:23:58.267Z,66.34
2018-10-02T00:26:27.364Z,66.08
2018-10-02T00:28:56.377Z,66.37
2018-10-02T00:31:25.484Z,66.25
2018-10-02T00:33:54.535Z,66.38
2018-10-02T00:36:23.667Z,66.67
2018-10-02T00:38:52.855Z,66.94
2018-10-02T00:41:21.928Z,66.81
2018-10-02T00:43:51.022Z,66.81
2018-10-02T00:46:20.123Z,66.81
2018-10-02T00:48:49.086Z,66.89
2018-10-02T00:51:18.196Z,66.99
2018-10-02T00:53:47.310Z,67.53
2018-10-02T00:56:16.269Z,67.36
2018-10-02T00:58:45.263Z,67.54
2018-10-02T01:01:14.336Z,67.80
2018-10-02T01:03:43.535Z,68.07
2018-10-02T01:06:12.527Z,67.92
2018-10-02T01:08:41.598Z,68.47
2018-10-02T01:11:10.666Z,68.68
2018-10-02T01:13:39.680Z,68.75
2018-10-02T01:16:08.737Z,69.40
2018-10-02T01:18:37.796Z,69.42
2018-10-02T01:21:07.583Z,69.22
2018-10-02T01:23:36.678Z,69.48
2018-10-02T01:26:05.746Z,69.73
2018-10-02T01:28:34.751Z,70.29
2018-10-02T01:31:03.820Z,70.23
2018-10-02T01:33:32.906Z,70.53
2018-10-02T01:36:02.053Z,70.53
2018-10-02T01:38:31.880Z,70.57
2018-10-02T01:41:00.870Z,70.38
2018-10-02T01:43:29.955Z,70.90
2018-10-02T01:45:59.187Z,71.06
2018-10-02T01:48:28.204Z,71.44
2018-10-02T01:50:57.706Z,71.24
2018-10-02T01:53:26.740Z,71.84
2018-10-02T01:55:55.829Z,71.81
2018-10-02T01:58:24.793Z,72.24
2018-10-02T02:00:53.835Z,72.04
2018-10-02T02:03:22.828Z,72.12
2018-10-02T02:05:51.916Z,71.81
2018-10-02T02:08:20.932Z,71.92
2018-10-02T02:10:49.918Z,72.18
2018-10-02T02:13:18.899Z,72.19
2018-10-02T02:15:47.949Z,72.29
2018-10-02T02:18:16.943Z,72.57
2018-10-02T02:20:45.950Z,72.74
2018-10-02T02:23:14.993Z,72.91
2018-10-02T02:25:44.028Z,73.02
2018-10-02T02:28:13.135Z,73.01
2018-10-02T02:30:42.165Z,73.38
2018-10-02T02:33:11.164Z,73.17
2018-10-02T02:35:40.249Z,73.30
2018-10-02T02:38:09.311Z,73.70
2018-10-02T02:40:38.340Z,73.46
2018-10-02T02:43:08.323Z,73.31
2018-10-02T02:45:37.283Z,74.15
2018-10-02T02:48:11.486Z,74.10
2018-10-02T02:51:44.081Z,73.80
2018-10-02T02:54:13.089Z,73.69
2018-10-02T02:56:42.342Z,73.71
2018-10-02T02:59:11.370Z,73.65
2018-10-02T03:01:41.198Z,73.99
2018-10-02T03:04:10.293Z,74.16
2018-10-02T03:06:39.332Z,74.66
2018-10-02T03:09:09.246Z,74.92
2018-10-02T03:11:38.245Z,74.90
2018-10-02T03:14:07.376Z,75.42
2018-10-02T03:16:36.412Z,75.22
2018-10-02T03:19:07.546Z,74.97
2018-10-02T03:21:36.622Z,75.38
2018-10-02T03:24:06.868Z,75.27
2018-10-02T03:26:37.530Z,75.98
2018-10-02T03:29:06.721Z,76.36
2018-10-02T03:31:35.900Z,76.31
2018-10-02T03:34:04.918Z,76.69
2018-10-02T03:36:33.907Z,76.91
2018-10-02T03:39:03.102Z,76.59
2018-10-02T03:41:32.822Z,75.89
2018-10-02T03:44:01.885Z,76.32
2018-10-02T03:46:30.970Z,76.09
2018-10-02T03:49:00.227Z,76.23
2018-10-02T03:51:29.095Z,75.78
2018-10-02T03:53:58.082Z,76.33
2018-10-02T03:56:27.185Z,75.96
2018-10-02T03:58:56.229Z,75.98
2018-10-02T04:01:25.339Z,75.85
2018-10-02T04:03:54.369Z,76.35
2018-10-02T04:06:23.521Z,75.69
2018-10-02T04:08:53.180Z,76.01
2018-10-02T04:11:22.292Z,76.81
2018-10-02T04:13:51.430Z,76.41
2018-10-02T04:16:20.525Z,76.52
2018-10-02T04:18:49.553Z,76.73
2018-10-02T04:21:35.195Z,76.77
2018-10-02T04:24:05.779Z,76.98
2018-10-02T04:26:36.060Z,76.32
2018-10-02T04:29:05.776Z,76.65
2018-10-02T04:31:36.222Z,76.45
2018-10-02T04:34:05.572Z,76.98
2018-10-02T04:36:34.628Z,76.87
2018-10-02T04:39:04.919Z,76.99
2018-10-02T04:41:33.945Z,76.55
2018-10-02T04:44:02.991Z,76.85
2018-10-02T04:46:32.682Z,77.16
2018-10-02T04:49:01.767Z,77.13
2018-10-02T04:51:30.892Z,77.18
2018-10-02T04:54:00.216Z,77.31
2018-10-02T04:56:29.532Z,77.07
2018-10-02T04:58:58.686Z,77.15
2018-10-02T05:01:27.806Z,77.48
2018-10-02T05:03:59.911Z,77.03
2018-10-02T05:06:29.069Z,77.30
2018-10-02T05:08:58.238Z,76.92
2018-10-02T05:11:27.672Z,77.89
2018-10-02T05:13:57.540Z,77.95
2018-10-02T05:16:26.595Z,78.21
2018-10-02T05:18:55.631Z,78.43
2018-10-02T05:21:24.663Z,78.72
2018-10-02T05:23:53.693Z,78.94
2018-10-02T05:26:22.703Z,78.89
2018-10-02T05:28:54.220Z,78.64
2018-10-02T05:31:23.273Z,78.78
2018-10-02T05:33:52.324Z,79.23
2018-10-02T05:36:21.369Z,79.94
2018-10-02T05:38:56.937Z,79.49
2018-10-02T05:41:26.100Z,79.65
2018-10-02T05:43:55.162Z,79.88
2018-10-02T05:46:24.392Z,79.77
2018-10-02T05:48:53.527Z,79.77
2018-10-02T05:51:22.520Z,80.02
2018-10-02T05:53:51.915Z,80.24
2018-10-02T05:56:21.068Z,80.07
2018-10-02T05:58:50.185Z,80.04
2018-10-02T06:01:19.315Z,80.11
2018-10-02T06:03:48.354Z,80.06
2018-10-02T06:06:17.463Z,80.19
2018-10-02T06:08:46.481Z,80.15
2018-10-02T06:11:15.553Z,80.12
2018-10-02T06:13:44.688Z,79.97
2018-10-02T06:16:13.815Z,80.08
2018-10-02T06:18:43.025Z,80.17
2018-10-02T06:21:16.596Z,80.32
2018-10-02T06:23:45.668Z,80.27
2018-10-02T06:26:14.758Z,80.06
2018-10-02T06:28:45.112Z,80.18
2018-10-02T06:31:14.179Z,80.06
2018-10-02T06:33:43.771Z,80.50
2018-10-02T06:36:12.885Z,80.62
2018-10-02T06:38:42.688Z,80.47
2018-10-02T06:41:11.790Z,80.57
2018-10-02T06:43:41.863Z,80.71
2018-10-02T06:46:10.838Z,80.55
2018-10-02T06:48:39.822Z,80.61
2018-10-02T06:51:10.243Z,80.53
2018-10-02T06:53:41.296Z,80.72
2018-10-02T06:56:10.954Z,80.78
2018-10-02T06:58:40.000Z,81.05
2018-10-02T07:01:09.780Z,80.90
2018-10-02T07:03:39.571Z,80.85
2018-10-02T07:06:08.673Z,80.80
2018-10-02T07:08:38.743Z,81.06
2018-10-02T07:11:15.280Z,80.56
2018-10-02T07:16:41.245Z,80.80
2018-10-02T07:19:10.450Z,80.68
2018-10-02T07:21:39.570Z,80.73
2018-10-02T07:24:09.713Z,80.64
2018-10-02T07:26:41.455Z,80.89
2018-10-02T07:29:10.567Z,80.76
2018-10-02T07:31:39.770Z,80.89
2018-10-02T07:34:09.972Z,80.75
2018-10-02T07:36:40.539Z,80.79
2018-10-02T07:39:10.280Z,80.81
2018-10-02T07:41:39.624Z,80.94
2018-10-02T07:44:09.539Z,80.86
2018-10-02T07:46:38.616Z,81.07
2018-10-02T07:49:07.873Z,81.11
2018-10-02T07:51:38.857Z,80.61
2018-10-02T07:54:07.976Z,80.99
2018-10-02T07:56:37.312Z,80.83
2018-10-02T07:59:06.615Z,80.60
2018-10-02T08:01:35.777Z,80.90
2018-10-02T08:04:04.987Z,80.47
2018-10-02T08:06:35.177Z,81.26
2018-10-02T08:09:05.598Z,81.09
2018-10-02T08:11:35.578Z,80.98
2018-10-02T08:14:04.689Z,81.48
2018-10-02T08:16:35.672Z,81.24
2018-10-02T08:19:05.614Z,81.03
2018-10-02T08:21:34.971Z,81.48
2018-10-02T08:24:04.116Z,81.57
2018-10-02T08:29:11.344Z,81.34
2018-10-02T08:31:42.679Z,81.46
2018-10-02T08:34:11.674Z,81.35
2018-10-02T08:36:40.729Z,81.24
2018-10-02T08:39:11.229Z,81.14
2018-10-02T08:41:42.464Z,81.08
2018-10-02T08:46:46.155Z,81.24
2018-10-02T08:49:15.354Z,81.23
2018-10-02T08:51:48.624Z,81.26
2018-10-02T08:54:17.663Z,81.19
2018-10-02T08:56:46.970Z,81.02
2018-10-02T08:59:16.336Z,81.56
2018-10-02T09:01:47.385Z,81.25
2018-10-02T09:04:17.605Z,81.39
2018-10-02T09:06:47.611Z,81.66
2018-10-02T09:09:16.833Z,81.36
2018-10-02T09:11:45.926Z,81.45
2018-10-02T09:14:15.012Z,81.40
2018-10-02T09:16:44.352Z,81.57
2018-10-02T09:19:14.708Z,81.39
2018-10-02T09:21:45.181Z,81.63
2018-10-02T09:24:14.539Z,81.57
2018-10-02T09:26:43.630Z,81.68
2018-10-02T09:29:12.656Z,81.92
2018-10-02T09:31:47.621Z,81.74
2018-10-02T09:34:21.831Z,81.85
2018-10-02T09:36:55.914Z,81.88
2018-10-02T09:39:30.083Z,81.62
2018-10-02T09:42:06.141Z,81.44
2018-10-02T09:44:35.794Z,81.64
2018-10-02T09:47:08.276Z,81.43
2018-10-02T09:49:38.595Z,81.40
2018-10-02T09:52:07.770Z,81.64
2018-10-02T09:54:39.803Z,81.76
2018-10-02T09:57:09.123Z,81.80
2018-10-02T09:59:57.837Z,81.06
2018-10-02T10:05:06.520Z,81.26
2018-10-02T10:07:35.769Z,81.25
2018-10-02T10:10:07.330Z,81.25
2018-10-02T10:12:37.271Z,81.25
2018-10-02T10:15:07.865Z,81.38
2018-10-02T10:17:38.762Z,81.25
2018-10-02T10:20:10.551Z,80.82
2018-10-02T10:22:41.119Z,80.94
2018-10-02T10:25:10.200Z,81.09
2018-10-02T10:27:39.778Z,80.64
2018-10-02T10:30:09.138Z,80.99
2018-10-02T10:32:39.072Z,80.97
2018-10-02T10:35:08.298Z,81.01
2018-10-02T10:37:38.824Z,80.75
2018-10-02T10:40:08.646Z,81.06
2018-10-02T10:42:43.813Z,80.67
2018-10-02T10:45:13.461Z,80.70
2018-10-02T10:47:43.506Z,80.65
2018-10-02T10:50:13.267Z,80.56
2018-10-02T10:52:43.528Z,80.34
2018-10-02T10:55:25.562Z,80.20
2018-10-02T10:57:54.810Z,80.02
2018-10-02T11:00:30.365Z,80.04
2018-10-02T11:03:02.144Z,80.09
2018-10-02T11:05:31.351Z,79.87
2018-10-02T11:08:03.958Z,79.45
2018-10-02T11:10:33.834Z,79.22
2018-10-02T11:13:04.680Z,79.16
2018-10-02T11:15:35.381Z,78.86
2018-10-02T11:18:04.557Z,78.68
2018-10-02T11:20:36.770Z,78.70
2018-10-02T11:23:10.196Z,78.66
2018-10-02T11:25:40.204Z,78.60
2018-10-02T11:28:09.553Z,78.28
2018-10-02T11:30:38.609Z,78.24
2018-10-02T11:33:07.873Z,78.35
2018-10-02T11:35:37.149Z,78.31
2018-10-02T11:38:06.338Z,78.40
2018-10-02T11:40:35.512Z,77.90
2018-10-02T11:43:04.643Z,78.01
2018-10-02T11:45:34.322Z,78.30
2018-10-02T11:48:03.395Z,78.08
2018-10-02T11:50:32.480Z,77.58
2018-10-02T11:53:02.790Z,77.66
2018-10-02T11:55:32.169Z,77.37
2018-10-02T11:58:01.230Z,77.07
2018-10-02T12:00:30.323Z,77.10
2018-10-02T12:02:59.441Z,77.11
2018-10-02T12:05:29.383Z,77.04
2018-10-02T12:07:58.674Z,77.27
2018-10-02T12:10:27.905Z,77.27
2018-10-02T12:12:57.143Z,76.93
2018-10-02T12:15:27.203Z,77.05
2018-10-02T12:20:40.036Z,77.47
2018-10-02T12:23:10.135Z,77.31
2018-10-02T12:28:33.041Z,77.00
2018-10-02T12:31:02.320Z,76.90
2018-10-02T12:33:31.633Z,76.99
2018-10-02T12:36:00.964Z,77.05
2018-10-02T12:38:30.237Z,77.05
2018-10-02T12:40:59.306Z,76.90
2018-10-02T12:43:28.531Z,76.95
2018-10-02T12:45:59.564Z,76.93
2018-10-02T12:48:28.745Z,76.94
2018-10-02T12:50:57.988Z,76.75
2018-10-02T12:53:27.181Z,76.60
2018-10-02T12:55:56.382Z,76.51
2018-10-02T12:58:25.756Z,76.27
2018-10-02T13:00:54.934Z,76.42
2018-10-02T13:03:24.152Z,76.40
2018-10-02T13:06:00.277Z,76.41
2018-10-02T13:08:30.265Z,76.35
2018-10-02T13:11:01.655Z,76.18
2018-10-02T13:13:30.846Z,76.19
2018-10-02T13:16:00.052Z,76.24
2018-10-02T13:18:29.155Z,76.14
2018-10-02T13:20:59.209Z,76.25
2018-10-02T13:23:28.472Z,76.15
2018-10-02T13:25:58.100Z,76.11
2018-10-02T13:28:27.165Z,76.14
2018-10-02T13:30:56.439Z,75.76
2018-10-02T13:33:25.765Z,76.03
2018-10-02T13:35:54.889Z,76.03
2018-10-02T13:38:24.006Z,75.97
2018-10-02T13:40:53.357Z,76.00
2018-10-02T13:43:22.812Z,75.81
2018-10-02T13:45:51.910Z,75.80
2018-10-02T13:48:22.154Z,75.92
2018-10-02T13:50:54.892Z,75.93
2018-10-02T13:53:24.067Z,75.94
2018-10-02T13:55:53.112Z,75.94
2018-10-02T13:58:22.297Z,76.03
2018-10-02T14:00:51.585Z,75.60
2018-10-02T14:03:22.417Z,75.73
2018-10-02T14:05:52.633Z,75.68
2018-10-02T14:08:22.867Z,75.71
2018-10-02T14:10:51.967Z,75.61
2018-10-02T14:13:21.696Z,75.60
2018-10-02T14:15:50.912Z,75.63
2018-10-02T14:21:09.715Z,75.33
2018-10-02T14:23:39.406Z,75.27
2018-10-02T14:26:08.933Z,75.07
2018-10-02T14:29:00.003Z,75.07
2018-10-02T14:31:29.192Z,75.02
2018-10-02T14:33:58.768Z,75.05
2018-10-02T14:36:27.913Z,75.10
2018-10-02T14:38:57.899Z,75.03
2018-10-02T14:41:27.076Z,74.85
2018-10-02T14:43:57.145Z,74.98
2018-10-02T14:46:26.410Z,75.13
2018-10-02T14:48:55.633Z,74.78
2018-10-02T14:51:25.308Z,74.72
2018-10-02T14:53:54.662Z,74.60
2018-10-02T14:56:23.812Z,74.48
2018-10-02T14:58:52.866Z,74.43
2018-10-02T15:01:33.598Z,74.24
2018-10-02T15:04:07.877Z,74.14
2018-10-02T15:06:37.914Z,74.40
2018-10-02T15:09:08.592Z,74.22
2018-10-02T15:11:37.969Z,74.30
2018-10-02T15:14:07.190Z,74.35
2018-10-02T15:16:36.661Z,74.58
2018-10-02T15:19:06.120Z,74.22
2018-10-02T15:21:35.171Z,74.22
2018-10-02T15:24:04.957Z,74.31
2018-10-02T15:26:34.117Z,74.04
2018-10-02T15:29:04.133Z,74.04
2018-10-02T15:31:33.231Z,74.01
2018-10-02T15:34:03.526Z,73.79
2018-10-02T15:36:32.986Z,73.55
2018-10-02T15:39:05.495Z,73.33
2018-10-02T15:41:34.676Z,73.35
2018-10-02T15:44:07.825Z,73.26
2018-10-02T15:46:37.059Z,73.13
2018-10-02T15:49:06.344Z,73.07
2018-10-02T15:51:35.643Z,73.03
2018-10-02T15:54:05.628Z,73.06
2018-10-02T15:56:34.828Z,73.02
2018-10-02T15:59:04.212Z,73.06
2018-10-02T16:01:33.372Z,73.06
2018-10-02T16:04:02.519Z,73.12
2018-10-02T16:06:31.707Z,73.16
2018-10-02T16:09:01.711Z,73.22
2018-10-02T16:11:30.893Z,73.32
2018-10-02T16:14:00.130Z,73.16
2018-10-02T16:16:29.244Z,73.19
2018-10-02T16:18:58.709Z,73.35
2018-10-02T16:21:27.760Z,73.54
2018-10-02T16:23:59.736Z,73.66
2018-10-02T16:26:28.916Z,73.62
2018-10-02T16:28:58.017Z,73.68
2018-10-02T16:31:28.296Z,73.58
2018-10-02T16:33:57.406Z,73.72
2018-10-02T16:36:26.988Z,73.83
2018-10-02T16:38:56.727Z,73.94
2018-10-02T16:41:25.956Z,73.87
2018-10-02T16:43:55.127Z,73.73
2018-10-02T16:46:24.250Z,73.94
2018-10-02T16:48:53.379Z,74.06
2018-10-02T16:51:22.472Z,74.04
2018-10-02T16:53:51.604Z,73.75
2018-10-02T16:56:20.747Z,74.11
2018-10-02T16:58:49.768Z,74.05
2018-10-02T17:01:18.864Z,74.13
2018-10-02T17:03:47.854Z,74.16
2018-10-02T17:06:17.102Z,74.32
2018-10-02T17:08:46.265Z,74.41
2018-10-02T17:11:16.585Z,74.40
2018-10-02T17:13:45.626Z,74.59
2018-10-02T17:16:14.698Z,74.74
2018-10-02T17:18:43.823Z,74.71
2018-10-02T17:21:12.865Z,74.53
2018-10-02T17:23:41.913Z,74.90
2018-10-02T17:26:10.950Z,74.87
2018-10-02T17:28:40.102Z,74.88
2018-10-02T17:31:10.240Z,74.95
2018-10-02T17:33:39.360Z,75.17
2018-10-02T17:36:09.552Z,75.07
2018-10-02T17:38:39.048Z,74.91
2018-10-02T17:41:08.245Z,75.23
2018-10-02T17:43:41.692Z,75.28
2018-10-02T17:46:10.785Z,75.38
2018-10-02T17:48:39.778Z,75.57
2018-10-02T17:51:08.900Z,75.60
2018-10-02T17:53:38.502Z,75.59
2018-10-02T17:56:07.913Z,75.36
2018-10-02T17:58:37.138Z,75.35
2018-10-02T18:01:07.054Z,75.39
2018-10-02T18:03:42.417Z,75.29
2018-10-02T18:06:11.474Z,75.78
2018-10-02T18:08:40.633Z,75.81
2018-10-02T18:11:09.941Z,75.63
2018-10-02T18:13:39.511Z,76.01
2018-10-02T18:16:10.422Z,75.96
2018-10-02T18:18:39.499Z,75.80
2018-10-02T18:23:41.750Z,76.03
2018-10-02T18:26:10.801Z,75.82
2018-10-02T18:28:39.894Z,75.85
2018-10-02T18:31:09.501Z,75.76
2018-10-02T18:33:38.595Z,76.01
2018-10-02T18:36:07.633Z,76.09
2018-10-02T18:38:37.082Z,75.86
2018-10-02T18:41:06.122Z,76.07
2018-10-02T18:43:35.230Z,76.37
2018-10-02T18:46:04.712Z,76.52
2018-10-02T18:48:34.683Z,76.36
2018-10-02T18:51:03.906Z,76.14
2018-10-02T18:53:33.906Z,76.45
2018-10-02T18:56:03.989Z,76.32
2018-10-02T18:58:33.037Z,76.09
2018-10-02T19:01:02.096Z,76.09
2018-10-02T19:03:31.102Z,76.26
2018-10-02T19:06:00.202Z,76.24
2018-10-02T19:08:34.551Z,76.50
2018-10-02T19:11:08.927Z,76.57
2018-10-02T19:13:38.215Z,76.72
2018-10-02T19:16:12.364Z,76.54
2018-10-02T19:18:41.603Z,76.64
2018-10-02T19:21:10.645Z,76.73
2018-10-02T19:23:40.889Z,76.65
2018-10-02T19:26:15.893Z,76.52
2018-10-02T19:28:44.976Z,76.49
2018-10-02T19:31:19.433Z,76.83
2018-10-02T19:33:49.063Z,76.63
2018-10-02T19:36:18.370Z,76.78
2018-10-02T19:38:57.343Z,76.82
2018-10-02T19:41:27.233Z,76.94
2018-10-02T19:43:56.594Z,76.97
2018-10-02T19:46:29.330Z,76.95
2018-10-02T19:48:58.546Z,77.16
2018-10-02T19:51:32.780Z,77.28
2018-10-02T19:54:01.834Z,77.18
2018-10-02T19:56:31.076Z,77.32
2018-10-02T19:59:00.143Z,77.22
2018-10-02T20:01:29.440Z,77.43
2018-10-02T20:03:58.515Z,77.27
2018-10-02T20:06:27.573Z,77.25
2018-10-02T20:08:56.777Z,77.12
2018-10-02T20:11:25.863Z,77.27
2018-10-02T20:13:55.353Z,77.42
2018-10-02T20:16:24.382Z,77.46
2018-10-02T20:18:53.484Z,77.50
2018-10-02T20:21:22.559Z,77.63
2018-10-02T20:23:52.181Z,77.63
2018-10-02T20:26:23.109Z,77.79
2018-10-02T20:28:52.822Z,78.16
2018-10-02T20:31:23.945Z,77.96
2018-10-02T20:33:53.717Z,77.95
2018-10-02T20:36:23.571Z,78.09
2018-10-02T20:38:53.179Z,78.07
2018-10-02T20:41:23.527Z,78.19
2018-10-02T20:43:53.282Z,78.16
2018-10-02T20:46:22.917Z,78.17
2018-10-02T20:48:52.712Z,78.03
2018-10-02T20:51:22.732Z,77.72
2018-10-02T20:53:51.845Z,77.73
2018-10-02T20:56:20.895Z,77.73
2018-10-02T20:58:49.900Z,77.64
2018-10-02T21:01:18.921Z,77.55
2018-10-02T21:03:47.974Z,77.48
2018-10-02T21:06:17.127Z,77.67
2018-10-02T21:08:46.235Z,77.66
2018-10-02T21:11:15.311Z,77.89
2018-10-02T21:13:44.370Z,77.92
2018-10-02T21:16:13.454Z,78.04
2018-10-02T21:18:42.496Z,78.08
2018-10-02T21:21:11.536Z,78.19
2018-10-02T21:23:40.661Z,78.23
2018-10-02T21:26:09.808Z,78.17
2018-10-02T21:28:39.136Z,78.31
2018-10-02T21:31:08.319Z,78.38
2018-10-02T21:33:37.374Z,78.42
2018-10-02T21:36:06.406Z,78.56
2018-10-02T21:38:35.495Z,78.71
2018-10-02T21:41:04.547Z,78.56
2018-10-02T21:43:34.931Z,78.35
2018-10-02T21:46:04.027Z,78.53
2018-10-02T21:48:33.223Z,78.55
2018-10-02T21:51:02.393Z,78.47
2018-10-02T21:53:31.703Z,78.62
2018-10-02T21:56:00.870Z,78.48
2018-10-02T21:58:30.779Z,78.41
2018-10-02T22:01:05.895Z,78.66
2018-10-02T22:03:37.805Z,78.70
2018-10-02T22:06:07.132Z,78.66
2018-10-02T22:08:36.129Z,78.74
2018-10-02T22:11:05.270Z,78.81
2018-10-02T22:13:35.360Z,78.62
2018-10-02T22:16:05.814Z,78.82
2018-10-02T22:18:34.818Z,78.84
2018-10-02T22:21:19.454Z,78.86
2018-10-02T22:23:48.597Z,79.00
2018-10-02T22:26:17.912Z,78.93
2018-10-02T22:29:00.574Z,78.90
2018-10-02T22:31:46.492Z,78.93
2018-10-02T22:34:30.480Z,79.02
2018-10-02T22:37:17.324Z,79.10
2018-10-02T22:39:46.445Z,79.08
2018-10-02T22:42:32.941Z,78.93
2018-10-02T22:45:20.906Z,79.09
2018-10-02T22:47:50.178Z,79.00
2018-10-02T22:50:34.821Z,79.02
2018-10-02T22:53:11.294Z,79.07
2018-10-02T22:55:55.553Z,79.01
2018-10-02T22:58:24.811Z,79.01
2018-10-02T23:00:54.356Z,79.07
2018-10-02T23:03:38.021Z,79.09
2018-10-02T23:06:19.861Z,79.08
2018-10-02T23:09:04.300Z,78.94
2018-10-02T23:11:48.340Z,79.04
2018-10-02T23:14:21.026Z,78.97
2018-10-02T23:17:05.581Z,78.93
2018-10-02T23:19:34.704Z,79.06
2018-10-02T23:22:03.702Z,79.03
2018-10-02T23:24:32.725Z,79.02
2018-10-02T23:27:02.981Z,78.97
2018-10-02T23:29:32.090Z,79.01
2018-10-02T23:32:01.137Z,78.91
2018-10-02T23:34:30.205Z,78.87
2018-10-02T23:36:59.354Z,79.01
2018-10-02T23:39:28.980Z,79.24
2018-10-02T23:41:59.234Z,78.96
2018-10-02T23:44:28.225Z,78.96
2018-10-02T23:46:57.504Z,79.02
2018-10-02T23:49:26.580Z,79.15
2018-10-02T23:51:55.570Z,79.09
2018-10-02T23:54:24.767Z,79.08
2018-10-02T23:56:53.783Z,79.19
2018-10-02T23:59:22.793Z,79.16
